Main page
METAR-TAF:

METAR-TAF

Airports :

Weno, Micronesia

Chuuk International Airport

latitude: 07-28N, longitude: 151-51E, elevation: 3 m

Current weather observation

The report was made 50 minutes ago, at 14:50 UTC
Wind 9 kt from the East/Northeast
Temperature 29°C
Humidity 79%
Pressure 1006 hPa
Visibility: 24.1 km
Few clouds at a height of 1400 ft
Broken clouds at a height of 12000 ft
Broken clouds at a height of 28000 ft

METAR: PTKK 231450Z 07009KT 15SM FEW014 BKN120 BKN280 29/25 A2971 RMK SLP062 8/178 T02870251 57012

Time: 01:40 (15:40 UTC)

Forecast

The report was made 4 hours and 14 minutes ago, at 11:26 UTC
Forecast valid from 23 at 12 UTC to 24 at 12 UTC
Wind 10 kt from the Northeast
Visibility: 10 km
Scattered clouds at a height of 1400 ft
Scattered clouds at a height of 28000 ft

TAF: PTKK 231126Z 2312/2412 04010KT P6SM SCT014 SCT280

Weather observations and forecasts of more than 4000 airports (METAR and TAF reports).

The available stations are represented by yellow and red dots on the map.

Hover mouse over dot to see the name of the station.

Then click to see weather observations and forecasts.

To change the map : click on the green buttons with a black cross to zoom in, on the green button with a dash to zoom out, or on the green arrows for adjacent maps.


METAR-TAF: